No particular awareness of the weather is required.    There are no Weather-warnings


Meteo18 Weather Cam more information Meteo18 Weather Cam


Thunder radar more information blitzortung!


Rain radar more information rain snow radar


Visit our other weather sites:

Template documentation
and downloads

And another site



Weather Underground History page Text

Daily Summary for October 10, 2016 Units:  Metric    English   Both
« Previous Day
Next Day »
Daily Weekly Monthly Yearly Custom
  High: Low: Average:
Temperature: 13.2 °C 3.4 °C 7.9 °C
Dew Point: 4.3 °C 1.4 °C 2.8 °C
Humidity: 89 % 50 % 72 %
Wind Speed: 22.5 km/h 0.0 km/h 3.4 km/h
Wind Gust: 24.1 km/h - -
Wind:- - South
Pressure: 1024.3 hPa 1019.5 hPa -
Precipitation: 0.0 mm    
Historical Graphs
 
 
Tabular Data for October 10, 2016
Time Temperature Dew Point Pressure Wind Wind Speed Wind Gust Humidity Rainfall Rate (Hourly)
00:02 7.4 °C 2.9 °C 1024.3 hPa Calm   3.2 km/h 73 % 0.0 mm
00:12 7.8 °C 2.9 °C 1024.3 hPa North 1.6 km/h 3.2 km/h 71 % 0.0 mm
00:17 7.7 °C 2.8 °C 1024.3 hPa Calm   1.6 km/h 71 % 0.0 mm
00:22 7.7 °C 3.0 °C 1024.3 hPa Calm   1.6 km/h 72 % 0.0 mm
00:27 7.7 °C 3.0 °C 1024.3 hPa Calm   1.6 km/h 72 % 0.0 mm
00:32 7.7 °C 3.0 °C 1024.3 hPa Calm   1.6 km/h 72 % 0.0 mm
00:42 7.4 °C 2.9 °C 1024.3 hPa WNW 1.6 km/h 1.6 km/h 73 % 0.0 mm
00:47 7.3 °C 3.2 °C 1024.3 hPa Calm   1.6 km/h 75 % 0.0 mm
00:52 7.4 °C 3.1 °C 1024.3 hPa Calm   1.6 km/h 74 % 0.0 mm
00:57 7.5 °C 3.0 °C 1024.3 hPa NW 1.6 km/h 1.6 km/h 73 % 0.0 mm
01:02 7.6 °C 2.9 °C 1024.3 hPa NW 3.2 km/h 3.2 km/h 72 % 0.0 mm
01:12 7.6 °C 2.9 °C 1024.3 hPa NW 3.2 km/h 3.2 km/h 72 % 0.0 mm
01:22 7.6 °C 2.9 °C 1023.9 hPa NW 1.6 km/h 4.8 km/h 72 % 0.0 mm
01:27 7.4 °C 2.7 °C 1024.3 hPa Calm   4.8 km/h 72 % 0.0 mm
01:32 7.2 °C 2.7 °C 1024.3 hPa Calm   3.2 km/h 73 % 0.0 mm
01:37 7.2 °C 2.7 °C 1024.3 hPa NNW 1.6 km/h 3.2 km/h 73 % 0.0 mm
01:42 7.1 °C 2.6 °C 1024.3 hPa Calm   3.2 km/h 73 % 0.0 mm
01:47 6.7 °C 2.2 °C 1024.3 hPa Calm   3.2 km/h 73 % 0.0 mm
01:52 6.2 °C 2.3 °C 1024.3 hPa Calm   3.2 km/h 76 % 0.0 mm
01:57 5.9 °C 2.4 °C 1023.9 hPa Calm   1.6 km/h 78 % 0.0 mm
02:02 5.9 °C 2.4 °C 1023.9 hPa Calm   1.6 km/h 78 % 0.0 mm
02:07 5.7 °C 2.2 °C 1023.9 hPa Calm     78 % 0.0 mm
02:12 5.7 °C 2.3 °C 1023.9 hPa Calm     79 % 0.0 mm
02:17 5.6 °C 2.2 °C 1023.9 hPa Calm   1.6 km/h 79 % 0.0 mm
02:22 5.5 °C 2.1 °C 1023.9 hPa Calm   1.6 km/h 79 % 0.0 mm
02:27 5.5 °C 2.1 °C 1023.9 hPa WNW 3.2 km/h 3.2 km/h 79 % 0.0 mm
02:37 4.9 °C 2.1 °C 1023.9 hPa WNW 1.6 km/h 3.2 km/h 82 % 0.0 mm
02:42 4.8 °C 1.8 °C 1023.9 hPa Calm   3.2 km/h 81 % 0.0 mm
02:47 4.8 °C 2.0 °C 1023.9 hPa Calm   3.2 km/h 82 % 0.0 mm
02:52 4.9 °C 2.1 °C 1023.9 hPa Calm   1.6 km/h 82 % 0.0 mm
02:57 4.9 °C 1.9 °C 1023.6 hPa Calm   1.6 km/h 81 % 0.0 mm
03:02 4.9 °C 2.1 °C 1023.9 hPa Calm   1.6 km/h 82 % 0.0 mm
03:12 4.7 °C 2.1 °C 1023.9 hPa WNW 1.6 km/h 1.6 km/h 83 % 0.0 mm
03:17 4.5 °C 2.2 °C 1023.6 hPa Calm   1.6 km/h 85 % 0.0 mm
03:22 4.7 °C 2.4 °C 1023.6 hPa Calm   1.6 km/h 85 % 0.0 mm
03:27 4.5 °C 2.0 °C 1023.6 hPa WNW 1.6 km/h 1.6 km/h 84 % 0.0 mm
03:32 4.3 °C 2.0 °C 1023.6 hPa WNW 1.6 km/h 3.2 km/h 85 % 0.0 mm
03:37 4.4 °C 2.1 °C 1023.6 hPa WNW 3.2 km/h 3.2 km/h 85 % 0.0 mm
03:42 4.4 °C 2.1 °C 1023.6 hPa WNW 1.6 km/h 3.2 km/h 85 % 0.0 mm
03:47 4.6 °C 2.3 °C 1023.6 hPa WNW 1.6 km/h 3.2 km/h 85 % 0.0 mm
03:52 4.6 °C 2.1 °C 1023.6 hPa WNW 1.6 km/h 3.2 km/h 84 % 0.0 mm
03:57 4.5 °C 2.2 °C 1023.6 hPa WNW 1.6 km/h 1.6 km/h 85 % 0.0 mm
04:02 4.4 °C 2.1 °C 1023.2 hPa WNW 1.6 km/h 1.6 km/h 85 % 0.0 mm
04:07 4.2 °C 2.1 °C 1023.2 hPa WNW 1.6 km/h 1.6 km/h 86 % 0.0 mm
04:17 4.2 °C 1.9 °C 1023.2 hPa Calm   3.2 km/h 85 % 0.0 mm
04:22 4.5 °C 2.4 °C 1023.2 hPa Calm   3.2 km/h 86 % 0.0 mm
04:27 4.7 °C 2.2 °C 1023.2 hPa WNW 1.6 km/h 4.8 km/h 84 % 0.0 mm
04:32 4.8 °C 2.2 °C 1023.2 hPa NW 1.6 km/h 4.8 km/h 83 % 0.0 mm
04:37 4.8 °C 2.2 °C 1023.2 hPa NW 1.6 km/h 4.8 km/h 83 % 0.0 mm
04:42 4.9 °C 2.3 °C 1023.2 hPa NW 3.2 km/h 3.2 km/h 83 % 0.0 mm
04:47 5.2 °C 2.5 °C 1023.2 hPa WNW 1.6 km/h 3.2 km/h 83 % 0.0 mm
04:52 5.4 °C 2.6 °C 1022.9 hPa WNW 1.6 km/h 3.2 km/h 82 % 0.0 mm
04:57 5.2 °C 2.4 °C 1022.9 hPa WNW 1.6 km/h 4.8 km/h 82 % 0.0 mm
05:02 5.2 °C 2.5 °C 1022.9 hPa NW 3.2 km/h 4.8 km/h 83 % 0.0 mm
05:07 5.3 °C 2.5 °C 1022.9 hPa NW 3.2 km/h 4.8 km/h 82 % 0.0 mm
05:12 5.3 °C 2.5 °C 1022.9 hPa NW 3.2 km/h 4.8 km/h 82 % 0.0 mm
05:17 5.3 °C 2.5 °C 1022.9 hPa NW 3.2 km/h 6.4 km/h 82 % 0.0 mm
05:22 5.2 °C 2.4 °C 1023.2 hPa Calm   6.4 km/h 82 % 0.0 mm
05:27 4.9 °C 1.9 °C 1022.9 hPa NNW 1.6 km/h 4.8 km/h 81 % 0.0 mm
05:32 4.7 °C 2.1 °C 1022.9 hPa Calm   4.8 km/h 83 % 0.0 mm
05:37 4.7 °C 2.1 °C 1023.2 hPa WNW 1.6 km/h 3.2 km/h 83 % 0.0 mm
05:42 4.4 °C 1.8 °C 1022.9 hPa WNW 1.6 km/h 3.2 km/h 83 % 0.0 mm
05:47 4.3 °C 1.8 °C 1023.2 hPa WNW 1.6 km/h 1.6 km/h 84 % 0.0 mm
05:52 4.3 °C 2.0 °C 1023.2 hPa Calm   1.6 km/h 85 % 0.0 mm
05:57 4.4 °C 2.1 °C 1023.2 hPa Calm   1.6 km/h 85 % 0.0 mm
06:02 4.4 °C 2.1 °C 1023.2 hPa WNW 1.6 km/h 1.6 km/h 85 % 0.0 mm
06:07 4.4 °C 2.1 °C 1022.9 hPa WNW 1.6 km/h 1.6 km/h 85 % 0.0 mm
06:12 4.3 °C 2.0 °C 1022.9 hPa WNW 1.6 km/h 1.6 km/h 85 % 0.0 mm
06:17 4.3 °C 2.0 °C 1023.2 hPa WNW 1.6 km/h 1.6 km/h 85 % 0.0 mm
06:22 4.2 °C 1.9 °C 1022.9 hPa Calm   3.2 km/h 85 % 0.0 mm
06:27 4.1 °C 1.8 °C 1022.9 hPa Calm   3.2 km/h 85 % 0.0 mm
06:32 3.9 °C 1.6 °C 1022.9 hPa Calm   3.2 km/h 85 % 0.0 mm
06:37 3.8 °C 1.7 °C 1022.9 hPa Calm   3.2 km/h 86 % 0.0 mm
06:42 3.8 °C 1.7 °C 1022.9 hPa Calm   1.6 km/h 86 % 0.0 mm
06:52 3.9 °C 1.9 °C 1022.9 hPa Calm   1.6 km/h 87 % 0.0 mm
07:02 3.7 °C 1.7 °C 1022.9 hPa Calm     87 % 0.0 mm
07:07 3.6 °C 1.6 °C 1022.9 hPa Calm     87 % 0.0 mm
07:12 3.6 °C 1.8 °C 1022.9 hPa Calm     88 % 0.0 mm
07:17 3.6 °C 1.8 °C 1022.9 hPa Calm     88 % 0.0 mm
07:22 3.6 °C 1.6 °C 1022.9 hPa Calm     87 % 0.0 mm
07:27 3.5 °C 1.7 °C 1022.9 hPa Calm     88 % 0.0 mm
07:32 3.7 °C 2.1 °C 1022.9 hPa Calm     89 % 0.0 mm
07:37 3.8 °C 2.0 °C 1022.9 hPa Calm     88 % 0.0 mm
07:42 3.7 °C 1.9 °C 1023.2 hPa Calm     88 % 0.0 mm
07:52 3.4 °C 1.4 °C 1023.2 hPa NNE 1.6 km/h   87 % 0.0 mm
07:57 3.4 °C 1.6 °C 1023.2 hPa NNW 1.6 km/h 1.6 km/h 88 % 0.0 mm
08:02 3.5 °C 1.7 °C 1023.2 hPa Calm   1.6 km/h 88 % 0.0 mm
08:07 3.5 °C 1.7 °C 1023.2 hPa Calm   1.6 km/h 88 % 0.0 mm
08:12 3.5 °C 1.7 °C 1023.2 hPa NW 1.6 km/h 1.6 km/h 88 % 0.0 mm
08:17 3.6 °C 1.8 °C 1023.2 hPa WNW 1.6 km/h 1.6 km/h 88 % 0.0 mm
08:22 3.8 °C 2.0 °C 1023.2 hPa WNW 1.6 km/h 1.6 km/h 88 % 0.0 mm
08:27 4.0 °C 2.0 °C 1023.2 hPa Calm   1.6 km/h 87 % 0.0 mm
08:32 4.0 °C 2.0 °C 1023.2 hPa Calm   1.6 km/h 87 % 0.0 mm
08:37 4.0 °C 2.0 °C 1023.2 hPa Calm   1.6 km/h 87 % 0.0 mm
08:42 4.1 °C 2.1 °C 1023.2 hPa Calm   1.6 km/h 87 % 0.0 mm
08:47 4.1 °C 2.1 °C 1023.2 hPa Calm   3.2 km/h 87 % 0.0 mm
08:52 4.1 °C 2.1 °C 1023.2 hPa NW 1.6 km/h 3.2 km/h 87 % 0.0 mm
08:57 4.4 °C 2.4 °C 1023.2 hPa Calm   4.8 km/h 87 % 0.0 mm
09:02 4.6 °C 2.5 °C 1023.2 hPa Calm   4.8 km/h 86 % 0.0 mm
09:07 4.8 °C 2.7 °C 1023.2 hPa Calm   3.2 km/h 86 % 0.0 mm
09:12 5.2 °C 2.9 °C 1023.2 hPa Calm   3.2 km/h 85 % 0.0 mm
09:17 5.5 °C 3.0 °C 1023.2 hPa Calm   1.6 km/h 84 % 0.0 mm
09:22 5.9 °C 3.2 °C 1023.2 hPa Calm   1.6 km/h 83 % 0.0 mm
09:32 6.4 °C 3.4 °C 1023.6 hPa Calm   1.6 km/h 81 % 0.0 mm
09:37 6.7 °C 3.7 °C 1023.2 hPa NNW 3.2 km/h 3.2 km/h 81 % 0.0 mm
09:42 7.1 °C 3.7 °C 1023.2 hPa Calm   3.2 km/h 79 % 0.0 mm
09:47 7.4 °C 3.6 °C 1023.2 hPa Calm   4.8 km/h 77 % 0.0 mm
09:52 7.7 °C 3.9 °C 1023.2 hPa Calm   4.8 km/h 77 % 0.0 mm
09:57 7.9 °C 4.1 °C 1023.2 hPa Calm   4.8 km/h 77 % 0.0 mm
10:02 8.2 °C 4.2 °C 1023.6 hPa NNW 6.4 km/h 6.4 km/h 76 % 0.0 mm
10:07 8.5 °C 4.3 °C 1023.6 hPa NNE 4.8 km/h 6.4 km/h 75 % 0.0 mm
10:12 8.8 °C 4.2 °C 1023.6 hPa NNE 3.2 km/h 6.4 km/h 73 % 0.0 mm
10:17 9.0 °C 4.2 °C 1023.6 hPa North 6.4 km/h 8.0 km/h 72 % 0.0 mm
10:22 9.2 °C 4.2 °C 1023.6 hPa North 6.4 km/h 8.0 km/h 71 % 0.0 mm
10:27 9.3 °C 3.9 °C 1023.6 hPa NNW 8.0 km/h 9.7 km/h 69 % 0.0 mm
10:32 9.6 °C 4.0 °C 1023.6 hPa NE 9.7 km/h 9.7 km/h 68 % 0.0 mm
10:37 9.7 °C 4.3 °C 1023.6 hPa NNE 8.0 km/h 14.5 km/h 69 % 0.0 mm
10:42 9.8 °C 3.7 °C 1023.6 hPa NNE 9.7 km/h 14.5 km/h 66 % 0.0 mm
10:47 9.8 °C 4.0 °C 1023.6 hPa North 8.0 km/h 19.3 km/h 67 % 0.0 mm
10:52 10.1 °C 4.0 °C 1023.2 hPa NNE 4.8 km/h 19.3 km/h 66 % 0.0 mm
10:57 10.2 °C 3.9 °C 1023.6 hPa North 14.5 km/h 14.5 km/h 65 % 0.0 mm
11:02 10.1 °C 3.8 °C 1023.6 hPa NNE 12.9 km/h 14.5 km/h 65 % 0.0 mm
11:12 10.3 °C 3.6 °C 1023.2 hPa NNE 14.5 km/h 17.7 km/h 63 % 0.0 mm
11:17 10.6 °C 3.4 °C 1023.2 hPa NE 6.4 km/h 17.7 km/h 61 % 0.0 mm
11:22 10.7 °C 3.7 °C 1023.2 hPa NNE 6.4 km/h 17.7 km/h 62 % 0.0 mm
11:27 10.8 °C 3.6 °C 1023.2 hPa North 11.3 km/h 17.7 km/h 61 % 0.0 mm
11:32 10.8 °C 3.6 °C 1023.2 hPa NNE 14.5 km/h 17.7 km/h 61 % 0.0 mm
11:42 11.2 °C 3.5 °C 1023.2 hPa NE 3.2 km/h 19.3 km/h 59 % 0.0 mm
11:47 11.3 °C 3.6 °C 1023.2 hPa ENE 1.6 km/h 19.3 km/h 59 % 0.0 mm
11:52 11.4 °C 3.7 °C 1023.2 hPa NNW 8.0 km/h 17.7 km/h 59 % 0.0 mm
11:57 11.4 °C 3.4 °C 1023.2 hPa North 11.3 km/h 19.3 km/h 58 % 0.0 mm
12:02 11.7 °C 3.5 °C 1023.2 hPa NNW 6.4 km/h 19.3 km/h 57 % 0.0 mm
12:07 11.8 °C 3.0 °C 1023.2 hPa NNE 8.0 km/h 19.3 km/h 55 % 0.0 mm
12:17 11.7 °C 3.0 °C 1023.2 hPa NNE 9.7 km/h 17.7 km/h 55 % 0.0 mm
12:22 11.8 °C 3.0 °C 1023.2 hPa NE 11.3 km/h 22.5 km/h 55 % 0.0 mm
12:27 12.0 °C 3.2 °C 1022.9 hPa NW 4.8 km/h 20.9 km/h 55 % 0.0 mm
12:32 12.1 °C 3.1 °C 1022.9 hPa NE 16.1 km/h 20.9 km/h 54 % 0.0 mm
12:42 12.1 °C 3.6 °C 1022.9 hPa NNE 11.3 km/h 22.5 km/h 56 % 0.0 mm
12:47 11.9 °C 3.4 °C 1022.9 hPa NNE 14.5 km/h 22.5 km/h 56 % 0.0 mm
12:52 12.0 °C 3.7 °C 1022.9 hPa NNE 9.7 km/h 22.5 km/h 57 % 0.0 mm
12:57 12.3 °C 3.5 °C 1022.9 hPa North 14.5 km/h 22.5 km/h 55 % 0.0 mm
13:02 12.2 °C 2.9 °C 1022.6 hPa North 9.7 km/h 20.9 km/h 53 % 0.0 mm
13:12 12.0 °C 3.0 °C 1022.6 hPa NNE 12.9 km/h 19.3 km/h 54 % 0.0 mm
13:17 12.0 °C 3.7 °C 1022.6 hPa ENE 3.2 km/h 22.5 km/h 57 % 0.0 mm
13:22 12.1 °C 3.6 °C 1022.6 hPa East 1.6 km/h 22.5 km/h 56 % 0.0 mm
13:27 12.3 °C 3.8 °C 1022.6 hPa North 19.3 km/h 22.5 km/h 56 % 0.0 mm
13:32 12.3 °C 3.8 °C 1022.6 hPa NNW 11.3 km/h 24.1 km/h 56 % 0.0 mm
13:42 12.3 °C 3.5 °C 1022.2 hPa NE 6.4 km/h 24.1 km/h 55 % 0.0 mm
13:47 12.3 °C 3.5 °C 1022.2 hPa NNW 14.5 km/h 22.5 km/h 55 % 0.0 mm
13:52 12.1 °C 3.6 °C 1022.2 hPa NNE 14.5 km/h 22.5 km/h 56 % 0.0 mm
13:57 12.3 °C 3.5 °C 1022.2 hPa NW 4.8 km/h 20.9 km/h 55 % 0.0 mm
14:02 12.4 °C 3.3 °C 1021.9 hPa NE 12.9 km/h 19.3 km/h 54 % 0.0 mm
14:12 12.5 °C 3.2 °C 1021.6 hPa NNE 8.0 km/h 22.5 km/h 53 % 0.0 mm
14:17 12.7 °C 3.4 °C 1021.6 hPa NNW 4.8 km/h 24.1 km/h 53 % 0.0 mm
14:22 12.5 °C 3.2 °C 1021.6 hPa NNW 11.3 km/h 24.1 km/h 53 % 0.0 mm
14:27 12.6 °C 3.3 °C 1021.6 hPa NNW 4.8 km/h 24.1 km/h 53 % 0.0 mm
14:32 12.6 °C 3.0 °C 1021.6 hPa ENE 4.8 km/h 22.5 km/h 52 % 0.0 mm
14:37 12.6 °C 3.3 °C 1021.6 hPa NE 8.0 km/h 22.5 km/h 53 % 0.0 mm
14:42 12.6 °C 3.0 °C 1021.2 hPa North 22.5 km/h 22.5 km/h 52 % 0.0 mm
14:47 12.5 °C 3.2 °C 1021.2 hPa NNE 4.8 km/h 22.5 km/h 53 % 0.0 mm
14:52 12.5 °C 3.4 °C 1021.2 hPa NE 3.2 km/h 22.5 km/h 54 % 0.0 mm
14:57 12.6 °C 3.0 °C 1021.2 hPa NE 9.7 km/h 22.5 km/h 52 % 0.0 mm
15:02 12.4 °C 2.8 °C 1021.2 hPa ENE 6.4 km/h 20.9 km/h 52 % 0.0 mm
15:12 12.5 °C 2.9 °C 1021.2 hPa North 11.3 km/h 20.9 km/h 52 % 0.0 mm
15:27 12.8 °C 3.5 °C 1020.9 hPa NE 12.9 km/h 19.3 km/h 53 % 0.0 mm
15:32 12.8 °C 3.2 °C 1020.9 hPa NE 8.0 km/h 19.3 km/h 52 % 0.0 mm
15:37 12.8 °C 3.5 °C 1020.9 hPa North 6.4 km/h 17.7 km/h 53 % 0.0 mm
15:42 12.8 °C 3.2 °C 1020.9 hPa Calm   17.7 km/h 52 % 0.0 mm
15:47 12.9 °C 3.0 °C 1020.9 hPa ENE 6.4 km/h 16.1 km/h 51 % 0.0 mm
15:52 12.8 °C 2.9 °C 1020.9 hPa NE 3.2 km/h 16.1 km/h 51 % 0.0 mm
16:02 12.8 °C 2.9 °C 1020.9 hPa North 11.3 km/h 19.3 km/h 51 % 0.0 mm
16:12 12.9 °C 2.7 °C 1020.9 hPa NNW 1.6 km/h 16.1 km/h 50 % 0.0 mm
16:17 13.1 °C 3.2 °C 1020.5 hPa NE 4.8 km/h 16.1 km/h 51 % 0.0 mm
16:22 13.2 °C 3.3 °C 1020.5 hPa NNE 4.8 km/h 12.9 km/h 51 % 0.0 mm
16:32 13.1 °C 3.5 °C 1020.5 hPa ENE 4.8 km/h 14.5 km/h 52 % 0.0 mm
16:37 13.1 °C 3.2 °C 1020.5 hPa NNE 4.8 km/h 12.9 km/h 51 % 0.0 mm
16:42 13.1 °C 3.5 °C 1020.5 hPa Calm   17.7 km/h 52 % 0.0 mm
16:52 13.2 °C 3.3 °C 1020.5 hPa NNE 3.2 km/h 17.7 km/h 51 % 0.0 mm
16:57 13.2 °C 3.3 °C 1020.5 hPa NNE 14.5 km/h 16.1 km/h 51 % 0.0 mm
17:02 13.1 °C 3.2 °C 1020.5 hPa NNE 3.2 km/h 17.7 km/h 51 % 0.0 mm
17:12 13.1 °C 3.2 °C 1020.2 hPa North 9.7 km/h 19.3 km/h 51 % 0.0 mm
17:17 13.1 °C 3.5 °C 1020.2 hPa North 3.2 km/h 19.3 km/h 52 % 0.0 mm
17:22 12.9 °C 3.3 °C 1020.5 hPa NE 6.4 km/h 14.5 km/h 52 % 0.0 mm
17:32 12.9 °C 3.5 °C 1020.2 hPa NW 3.2 km/h 16.1 km/h 53 % 0.0 mm
17:42 12.7 °C 3.6 °C 1020.2 hPa Calm   14.5 km/h 54 % 0.0 mm
17:47 12.7 °C 3.6 °C 1020.2 hPa NE 9.7 km/h 14.5 km/h 54 % 0.0 mm
17:52 12.7 °C 3.6 °C 1020.2 hPa NE 6.4 km/h 14.5 km/h 54 % 0.0 mm
18:02 12.5 °C 3.7 °C 1020.5 hPa NNE 9.7 km/h 19.3 km/h 55 % 0.0 mm
18:12 12.4 °C 3.6 °C 1020.2 hPa North 3.2 km/h 19.3 km/h 55 % 0.0 mm
18:17 12.3 °C 3.3 °C 1020.2 hPa NE 9.7 km/h 19.3 km/h 54 % 0.0 mm
18:22 12.2 °C 3.4 °C 1020.2 hPa NE 11.3 km/h 12.9 km/h 55 % 0.0 mm
18:27 12.1 °C 3.3 °C 1020.2 hPa West 3.2 km/h 20.9 km/h 55 % 0.0 mm
18:32 12.1 °C 3.3 °C 1020.2 hPa NNE 6.4 km/h 20.9 km/h 55 % 0.0 mm
18:37 11.9 °C 3.1 °C 1020.2 hPa NE 11.3 km/h 17.7 km/h 55 % 0.0 mm
18:42 11.9 °C 3.1 °C 1020.2 hPa NNE 3.2 km/h 17.7 km/h 55 % 0.0 mm
18:52 11.6 °C 3.6 °C 1020.2 hPa NE 3.2 km/h 11.3 km/h 58 % 0.0 mm
18:57 11.4 °C 3.4 °C 1020.2 hPa NE 4.8 km/h 9.7 km/h 58 % 0.0 mm
19:07 11.1 °C 3.4 °C 1020.2 hPa North 3.2 km/h 6.4 km/h 59 % 0.0 mm
19:12 10.9 °C 3.4 °C 1020.2 hPa NNE 4.8 km/h 8.0 km/h 60 % 0.0 mm
19:17 10.8 °C 3.3 °C 1020.2 hPa NE 4.8 km/h 9.7 km/h 60 % 0.0 mm
19:22 10.7 °C 3.2 °C 1020.2 hPa Calm   9.7 km/h 60 % 0.0 mm
19:37 10.1 °C 3.1 °C 1020.2 hPa Calm   4.8 km/h 62 % 0.0 mm
19:47 9.6 °C 3.1 °C 1020.2 hPa Calm   3.2 km/h 64 % 0.0 mm
19:52 9.6 °C 3.3 °C 1020.2 hPa Calm   1.6 km/h 65 % 0.0 mm
19:57 9.3 °C 3.3 °C 1020.2 hPa Calm     66 % 0.0 mm
20:02 9.1 °C 3.3 °C 1020.2 hPa Calm     67 % 0.0 mm
20:12 8.7 °C 3.3 °C 1020.2 hPa NNW 1.6 km/h 1.6 km/h 69 % 0.0 mm
20:27 8.2 °C 3.3 °C 1020.2 hPa Calm   1.6 km/h 71 % 0.0 mm
20:32 8.1 °C 3.2 °C 1020.2 hPa Calm   3.2 km/h 71 % 0.0 mm
20:37 7.8 °C 3.1 °C 1020.2 hPa Calm   3.2 km/h 72 % 0.0 mm
20:47 7.5 °C 3.2 °C 1020.2 hPa Calm   1.6 km/h 74 % 0.0 mm
20:52 7.4 °C 3.3 °C 1020.2 hPa Calm   1.6 km/h 75 % 0.0 mm
20:57 7.3 °C 3.2 °C 1020.2 hPa Calm   1.6 km/h 75 % 0.0 mm
21:02 7.1 °C 3.2 °C 1020.2 hPa Calm   1.6 km/h 76 % 0.0 mm
21:12 6.7 °C 2.8 °C 1020.2 hPa WNW 1.6 km/h 1.6 km/h 76 % 0.0 mm
21:17 6.6 °C 2.7 °C 1020.2 hPa WNW 3.2 km/h 3.2 km/h 76 % 0.0 mm
21:22 6.5 °C 2.9 °C 1020.2 hPa WNW 1.6 km/h 3.2 km/h 78 % 0.0 mm
21:27 6.4 °C 2.7 °C 1020.2 hPa WNW 3.2 km/h 3.2 km/h 77 % 0.0 mm
21:32 6.2 °C 2.6 °C 1020.2 hPa WNW 1.6 km/h 3.2 km/h 78 % 0.0 mm
21:37 6.2 °C 2.8 °C 1019.9 hPa Calm   3.2 km/h 79 % 0.0 mm
21:42 6.4 °C 2.7 °C 1019.9 hPa WNW 1.6 km/h 3.2 km/h 77 % 0.0 mm
21:47 6.3 °C 2.9 °C 1019.9 hPa WNW 1.6 km/h 3.2 km/h 79 % 0.0 mm
21:52 6.2 °C 3.0 °C 1019.9 hPa Calm   3.2 km/h 80 % 0.0 mm
21:57 6.0 °C 2.8 °C 1019.9 hPa WNW 1.6 km/h 1.6 km/h 80 % 0.0 mm
22:02 5.9 °C 2.9 °C 1019.9 hPa Calm   1.6 km/h 81 % 0.0 mm
22:12 5.8 °C 3.0 °C 1019.9 hPa WNW 1.6 km/h 1.6 km/h 82 % 0.0 mm
22:17 5.8 °C 2.8 °C 1019.9 hPa WNW 1.6 km/h 3.2 km/h 81 % 0.0 mm
22:22 5.7 °C 2.9 °C 1019.9 hPa Calm   3.2 km/h 82 % 0.0 mm
22:32 5.8 °C 2.8 °C 1019.9 hPa Calm   1.6 km/h 81 % 0.0 mm
22:37 5.7 °C 2.7 °C 1019.9 hPa Calm   1.6 km/h 81 % 0.0 mm
22:42 5.7 °C 2.7 °C 1019.9 hPa Calm   1.6 km/h 81 % 0.0 mm
22:47 5.7 °C 2.7 °C 1019.9 hPa WNW 1.6 km/h 1.6 km/h 81 % 0.0 mm
22:52 5.7 °C 2.7 °C 1019.9 hPa Calm   1.6 km/h 81 % 0.0 mm
22:57 5.6 °C 2.8 °C 1019.9 hPa Calm   1.6 km/h 82 % 0.0 mm
23:02 5.6 °C 2.6 °C 1019.9 hPa Calm   1.6 km/h 81 % 0.0 mm
23:12 5.8 °C 2.4 °C 1019.5 hPa Calm   1.6 km/h 79 % 0.0 mm
23:17 5.5 °C 2.5 °C 1019.5 hPa Calm     81 % 0.0 mm
23:22 5.4 °C 2.6 °C 1019.5 hPa WNW 1.6 km/h 3.2 km/h 82 % 0.0 mm
23:32 5.5 °C 2.7 °C 1019.5 hPa Calm   3.2 km/h 82 % 0.0 mm
23:37 5.9 °C 2.7 °C 1019.5 hPa Calm   1.6 km/h 80 % 0.0 mm
23:42 5.9 °C 2.5 °C 1019.5 hPa Calm   1.6 km/h 79 % 0.0 mm
23:47 6.1 °C 2.7 °C 1019.5 hPa Calm   1.6 km/h 79 % 0.0 mm
23:57 6.5 °C 2.9 °C 1019.5 hPa Calm   1.6 km/h 78 % 0.0 mm
Meteo18
Compliments of Weather Underground - 4 mb

Script developed by  Jim McMurry - jmcmurry@mwt.net Adapted for the template by  Wim van der Kuil - Leuven-Template.eu

You find our weather info also at:

European Weather Network

Weather Underground

Equipment we use:

Weather-station
Davis Vue

Weather-program
Meteohub

Weather-server
Raspberry PI 2 B+

Provider
1 and 1

Davis Vue

Meteohub

Raspberry PI 2 B+

1 and 1